CheckWX is a tool to help pilots better visualize weather data.  It is not intended as a substitute for an official pre-flight weather briefing.

15:15:44 UTC

KTVF TAF
Thief River Falls Regional Airport
Thief River Falls, Minnesota, USA
KTVF 191128Z 1912/2012 29007KT P6SM OVC017 TEMPO 1913/1916 5SM BR BKN007 FM191600 30009KT P6SM OVC007 FM192200 31006KT P6SM OVC015 FM201000 VRB03KT P6SM OVC007

Nov-19@
12:00 UTC

Nov-19 @ 12:00 UTC

Nov-19@
16:00 UTC

Nov-19 @ 16:00 UTC

KTVF 191128Z 1912/2012 29007KT P6SM OVC017
Wind
  • 290° at 7 KTS
Cloud Levels
  • Overcast at 1,700' AGL

Nov-19@
13:00 UTC

Nov-19 @ 13:00 UTC

Nov-19@
16:00 UTC

Nov-19 @ 16:00 UTC

TEMPO 1913/1916 5SM BR BKN007

Temporary

Temporary Changes expected for less than half the time period

Conditions
Mist
Cloud Levels
  • Broken at 700' AGL

Nov-19@
16:00 UTC

Nov-19 @ 16:00 UTC

Nov-19@
22:00 UTC

Nov-19 @ 22:00 UTC

FM191600 30009KT P6SM OVC007

From

From Standard forecast or significant change

Wind
  • 300° at 9 KTS
Cloud Levels
  • Overcast at 700' AGL

Nov-19@
22:00 UTC

Nov-19 @ 22:00 UTC

Nov-20@
10:00 UTC

Nov-20 @ 10:00 UTC

FM192200 31006KT P6SM OVC015

From

From Standard forecast or significant change

Wind
  • 310° at 6 KTS
Cloud Levels
  • Overcast at 1,500' AGL

Nov-20@
10:00 UTC

Nov-20 @ 10:00 UTC

Nov-20@
12:00 UTC

Nov-20 @ 12:00 UTC

FM201000 VRB03KT P6SM OVC007

From

From Standard forecast or significant change

Wind
  • Variable at 3 KTS
Cloud Levels
  • Overcast at 700' AGL